sensor_id;sensor_type;location;lat;lon;timestamp;P1;durP1;ratioP1;P2;durP2;ratioP2
19030;SDS011;9648;51.130;13.978;2023-11-19T00:02:18;8.67;;;5.53;;
19030;SDS011;9648;51.130;13.978;2023-11-19T00:05:19;11.03;;;5.20;;
19030;SDS011;9648;51.130;13.978;2023-11-19T00:08:22;12.60;;;5.70;;
19030;SDS011;9648;51.130;13.978;2023-11-19T00:11:25;12.20;;;5.63;;
19030;SDS011;9648;51.130;13.978;2023-11-19T00:14:26;9.30;;;5.37;;
19030;SDS011;9648;51.130;13.978;2023-11-19T00:17:30;10.53;;;5.70;;
19030;SDS011;9648;51.130;13.978;2023-11-19T00:20:31;9.53;;;5.73;;
19030;SDS011;9648;51.130;13.978;2023-11-19T00:23:34;14.00;;;7.10;;
19030;SDS011;9648;51.130;13.978;2023-11-19T00:26:36;14.20;;;6.77;;
19030;SDS011;9648;51.130;13.978;2023-11-19T00:29:38;11.70;;;6.27;;
19030;SDS011;9648;51.130;13.978;2023-11-19T00:32:40;14.53;;;7.27;;
19030;SDS011;9648;51.130;13.978;2023-11-19T00:35:42;11.23;;;6.40;;
19030;SDS011;9648;51.130;13.978;2023-11-19T00:38:45;10.80;;;6.80;;
19030;SDS011;9648;51.130;13.978;2023-11-19T00:41:46;16.30;;;8.10;;
19030;SDS011;9648;51.130;13.978;2023-11-19T00:44:48;10.57;;;6.40;;
19030;SDS011;9648;51.130;13.978;2023-11-19T00:47:50;11.77;;;6.43;;
19030;SDS011;9648;51.130;13.978;2023-11-19T00:50:51;9.83;;;5.80;;
19030;SDS011;9648;51.130;13.978;2023-11-19T00:53:54;16.20;;;6.43;;
19030;SDS011;9648;51.130;13.978;2023-11-19T00:56:56;12.40;;;6.17;;
19030;SDS011;9648;51.130;13.978;2023-11-19T00:59:57;9.70;;;5.67;;
19030;SDS011;9648;51.130;13.978;2023-11-19T01:02:59;13.87;;;6.27;;
19030;SDS011;9648;51.130;13.978;2023-11-19T01:06:01;9.33;;;5.50;;
19030;SDS011;9648;51.130;13.978;2023-11-19T01:09:04;10.90;;;5.90;;
19030;SDS011;9648;51.130;13.978;2023-11-19T01:12:06;10.30;;;6.30;;
19030;SDS011;9648;51.130;13.978;2023-11-19T01:15:09;11.07;;;5.93;;
19030;SDS011;9648;51.130;13.978;2023-11-19T01:18:10;9.90;;;5.33;;
19030;SDS011;9648;51.130;13.978;2023-11-19T01:21:13;10.43;;;5.60;;
19030;SDS011;9648;51.130;13.978;2023-11-19T01:24:17;13.07;;;5.77;;
19030;SDS011;9648;51.130;13.978;2023-11-19T01:27:18;9.93;;;5.27;;
19030;SDS011;9648;51.130;13.978;2023-11-19T01:30:20;11.17;;;5.27;;
19030;SDS011;9648;51.130;13.978;2023-11-19T01:33:21;8.63;;;4.90;;
19030;SDS011;9648;51.130;13.978;2023-11-19T01:36:23;9.60;;;4.97;;
19030;SDS011;9648;51.130;13.978;2023-11-19T01:39:26;6.50;;;4.33;;
19030;SDS011;9648;51.130;13.978;2023-11-19T01:42:28;7.50;;;4.50;;
19030;SDS011;9648;51.130;13.978;2023-11-19T01:45:30;11.30;;;5.23;;
19030;SDS011;9648;51.130;13.978;2023-11-19T01:48:32;7.80;;;4.50;;
19030;SDS011;9648;51.130;13.978;2023-11-19T01:51:36;7.17;;;4.20;;
19030;SDS011;9648;51.130;13.978;2023-11-19T01:54:39;5.23;;;3.63;;
19030;SDS011;9648;51.130;13.978;2023-11-19T01:57:40;7.80;;;4.70;;
19030;SDS011;9648;51.130;13.978;2023-11-19T02:00:42;8.27;;;4.10;;
19030;SDS011;9648;51.130;13.978;2023-11-19T02:03:45;9.70;;;4.70;;
19030;SDS011;9648;51.130;13.978;2023-11-19T02:06:47;6.90;;;4.13;;
19030;SDS011;9648;51.130;13.978;2023-11-19T02:09:51;7.23;;;4.13;;
19030;SDS011;9648;51.130;13.978;2023-11-19T02:12:53;7.23;;;4.33;;
19030;SDS011;9648;51.130;13.978;2023-11-19T02:15:55;7.47;;;4.20;;
19030;SDS011;9648;51.130;13.978;2023-11-19T02:18:56;8.23;;;4.40;;
19030;SDS011;9648;51.130;13.978;2023-11-19T02:21:58;7.13;;;4.63;;
19030;SDS011;9648;51.130;13.978;2023-11-19T02:25:04;6.43;;;4.20;;
19030;SDS011;9648;51.130;13.978;2023-11-19T02:28:07;6.77;;;4.37;;
19030;SDS011;9648;51.130;13.978;2023-11-19T02:31:12;7.60;;;4.37;;
19030;SDS011;9648;51.130;13.978;2023-11-19T02:34:13;7.80;;;4.87;;
19030;SDS011;9648;51.130;13.978;2023-11-19T02:37:16;6.33;;;3.90;;
19030;SDS011;9648;51.130;13.978;2023-11-19T02:40:19;6.37;;;3.73;;
19030;SDS011;9648;51.130;13.978;2023-11-19T02:43:25;6.27;;;3.60;;
19030;SDS011;9648;51.130;13.978;2023-11-19T02:46:27;7.00;;;4.10;;
19030;SDS011;9648;51.130;13.978;2023-11-19T02:49:29;5.83;;;3.80;;
19030;SDS011;9648;51.130;13.978;2023-11-19T02:52:31;6.57;;;3.60;;
19030;SDS011;9648;51.130;13.978;2023-11-19T02:55:38;4.60;;;3.10;;
19030;SDS011;9648;51.130;13.978;2023-11-19T02:58:43;6.77;;;4.23;;
19030;SDS011;9648;51.130;13.978;2023-11-19T03:01:46;8.13;;;4.07;;
19030;SDS011;9648;51.130;13.978;2023-11-19T03:04:50;6.27;;;3.77;;
19030;SDS011;9648;51.130;13.978;2023-11-19T03:07:51;5.30;;;3.33;;
19030;SDS011;9648;51.130;13.978;2023-11-19T03:10:53;5.30;;;3.23;;
19030;SDS011;9648;51.130;13.978;2023-11-19T03:13:56;5.57;;;3.50;;
19030;SDS011;9648;51.130;13.978;2023-11-19T03:16:59;5.10;;;3.30;;
19030;SDS011;9648;51.130;13.978;2023-11-19T03:20:00;6.10;;;3.17;;
19030;SDS011;9648;51.130;13.978;2023-11-19T03:23:02;5.37;;;2.87;;
19030;SDS011;9648;51.130;13.978;2023-11-19T03:26:04;6.33;;;3.07;;
19030;SDS011;9648;51.130;13.978;2023-11-19T03:29:07;4.80;;;2.80;;
19030;SDS011;9648;51.130;13.978;2023-11-19T03:32:08;4.73;;;2.70;;
19030;SDS011;9648;51.130;13.978;2023-11-19T03:35:11;4.73;;;2.73;;
19030;SDS011;9648;51.130;13.978;2023-11-19T03:38:12;4.07;;;2.80;;
19030;SDS011;9648;51.130;13.978;2023-11-19T03:41:14;3.83;;;2.73;;
19030;SDS011;9648;51.130;13.978;2023-11-19T03:44:18;5.20;;;2.63;;
19030;SDS011;9648;51.130;13.978;2023-11-19T03:47:20;4.60;;;2.67;;
19030;SDS011;9648;51.130;13.978;2023-11-19T03:50:21;4.27;;;2.60;;
19030;SDS011;9648;51.130;13.978;2023-11-19T03:53:23;4.53;;;2.80;;
19030;SDS011;9648;51.130;13.978;2023-11-19T03:56:25;5.73;;;2.67;;
19030;SDS011;9648;51.130;13.978;2023-11-19T03:59:28;5.07;;;2.77;;
19030;SDS011;9648;51.130;13.978;2023-11-19T04:02:30;4.73;;;2.90;;
19030;SDS011;9648;51.130;13.978;2023-11-19T04:05:31;3.83;;;2.57;;
19030;SDS011;9648;51.130;13.978;2023-11-19T04:08:33;5.43;;;3.17;;
19030;SDS011;9648;51.130;13.978;2023-11-19T04:11:36;4.17;;;2.83;;
19030;SDS011;9648;51.130;13.978;2023-11-19T04:14:39;6.73;;;3.40;;
19030;SDS011;9648;51.130;13.978;2023-11-19T04:17:40;7.50;;;3.20;;
19030;SDS011;9648;51.130;13.978;2023-11-19T04:20:42;5.93;;;3.93;;
19030;SDS011;9648;51.130;13.978;2023-11-19T04:23:44;5.00;;;3.20;;
19030;SDS011;9648;51.130;13.978;2023-11-19T04:26:45;5.10;;;3.50;;
19030;SDS011;9648;51.130;13.978;2023-11-19T04:29:49;5.83;;;3.80;;
19030;SDS011;9648;51.130;13.978;2023-11-19T04:32:50;6.10;;;3.40;;
19030;SDS011;9648;51.130;13.978;2023-11-19T04:35:52;5.37;;;3.33;;
19030;SDS011;9648;51.130;13.978;2023-11-19T04:38:54;5.47;;;3.43;;
19030;SDS011;9648;51.130;13.978;2023-11-19T04:41:55;6.23;;;3.73;;
19030;SDS011;9648;51.130;13.978;2023-11-19T04:44:58;4.57;;;3.50;;
19030;SDS011;9648;51.130;13.978;2023-11-19T04:48:00;6.40;;;4.00;;
19030;SDS011;9648;51.130;13.978;2023-11-19T04:51:04;6.37;;;3.80;;
19030;SDS011;9648;51.130;13.978;2023-11-19T04:54:06;5.90;;;3.47;;
19030;SDS011;9648;51.130;13.978;2023-11-19T04:57:08;6.07;;;3.70;;
19030;SDS011;9648;51.130;13.978;2023-11-19T05:00:13;7.17;;;3.53;;
19030;SDS011;9648;51.130;13.978;2023-11-19T05:03:15;6.10;;;3.60;;
19030;SDS011;9648;51.130;13.978;2023-11-19T05:06:16;5.33;;;3.50;;
19030;SDS011;9648;51.130;13.978;2023-11-19T05:09:18;6.63;;;3.97;;
19030;SDS011;9648;51.130;13.978;2023-11-19T05:12:19;5.10;;;3.77;;
19030;SDS011;9648;51.130;13.978;2023-11-19T05:15:22;5.83;;;3.80;;
19030;SDS011;9648;51.130;13.978;2023-11-19T05:18:24;7.50;;;4.00;;
19030;SDS011;9648;51.130;13.978;2023-11-19T05:21:25;7.00;;;4.43;;
19030;SDS011;9648;51.130;13.978;2023-11-19T05:24:27;7.77;;;4.17;;
19030;SDS011;9648;51.130;13.978;2023-11-19T05:27:29;5.93;;;3.93;;
19030;SDS011;9648;51.130;13.978;2023-11-19T05:30:32;6.70;;;3.90;;
19030;SDS011;9648;51.130;13.978;2023-11-19T05:33:34;6.93;;;4.13;;
19030;SDS011;9648;51.130;13.978;2023-11-19T05:36:35;6.30;;;4.23;;
19030;SDS011;9648;51.130;13.978;2023-11-19T05:39:37;7.80;;;4.00;;
19030;SDS011;9648;51.130;13.978;2023-11-19T05:42:39;7.03;;;4.27;;
19030;SDS011;9648;51.130;13.978;2023-11-19T05:45:42;7.90;;;4.40;;
19030;SDS011;9648;51.130;13.978;2023-11-19T05:48:43;7.80;;;4.10;;
19030;SDS011;9648;51.130;13.978;2023-11-19T05:51:46;7.90;;;4.47;;
19030;SDS011;9648;51.130;13.978;2023-11-19T05:54:48;7.13;;;4.63;;
19030;SDS011;9648;51.130;13.978;2023-11-19T05:57:52;7.17;;;4.33;;
19030;SDS011;9648;51.130;13.978;2023-11-19T06:00:54;6.93;;;4.10;;
19030;SDS011;9648;51.130;13.978;2023-11-19T06:03:56;6.77;;;4.27;;
19030;SDS011;9648;51.130;13.978;2023-11-19T06:06:58;6.87;;;4.20;;
19030;SDS011;9648;51.130;13.978;2023-11-19T06:09:59;6.37;;;3.97;;
19030;SDS011;9648;51.130;13.978;2023-11-19T06:13:01;6.97;;;4.07;;
19030;SDS011;9648;51.130;13.978;2023-11-19T06:16:06;7.13;;;4.57;;
19030;SDS011;9648;51.130;13.978;2023-11-19T06:19:08;5.53;;;3.73;;
19030;SDS011;9648;51.130;13.978;2023-11-19T06:22:11;5.83;;;3.93;;
19030;SDS011;9648;51.130;13.978;2023-11-19T06:25:13;7.87;;;3.90;;
19030;SDS011;9648;51.130;13.978;2023-11-19T06:28:15;7.77;;;4.37;;
19030;SDS011;9648;51.130;13.978;2023-11-19T06:31:18;6.90;;;4.03;;
19030;SDS011;9648;51.130;13.978;2023-11-19T06:34:20;5.73;;;3.77;;
19030;SDS011;9648;51.130;13.978;2023-11-19T06:37:21;5.43;;;3.30;;
19030;SDS011;9648;51.130;13.978;2023-11-19T06:40:23;5.70;;;3.77;;
19030;SDS011;9648;51.130;13.978;2023-11-19T06:43:25;5.30;;;3.67;;
19030;SDS011;9648;51.130;13.978;2023-11-19T06:46:31;7.07;;;3.93;;
19030;SDS011;9648;51.130;13.978;2023-11-19T06:49:33;5.47;;;3.90;;
19030;SDS011;9648;51.130;13.978;2023-11-19T06:52:34;5.43;;;3.27;;
19030;SDS011;9648;51.130;13.978;2023-11-19T06:55:37;5.50;;;3.47;;
19030;SDS011;9648;51.130;13.978;2023-11-19T06:58:39;5.77;;;3.30;;
19030;SDS011;9648;51.130;13.978;2023-11-19T07:01:42;5.37;;;3.27;;
19030;SDS011;9648;51.130;13.978;2023-11-19T07:04:44;5.70;;;3.60;;
19030;SDS011;9648;51.130;13.978;2023-11-19T07:07:45;4.90;;;3.30;;
19030;SDS011;9648;51.130;13.978;2023-11-19T07:10:47;4.63;;;3.40;;
19030;SDS011;9648;51.130;13.978;2023-11-19T07:13:49;4.93;;;3.03;;
19030;SDS011;9648;51.130;13.978;2023-11-19T07:16:52;5.37;;;3.30;;
19030;SDS011;9648;51.130;13.978;2023-11-19T07:19:54;5.67;;;3.20;;
19030;SDS011;9648;51.130;13.978;2023-11-19T07:23:00;5.30;;;3.33;;
19030;SDS011;9648;51.130;13.978;2023-11-19T07:26:04;4.53;;;2.80;;
19030;SDS011;9648;51.130;13.978;2023-11-19T07:29:07;5.50;;;3.03;;
19030;SDS011;9648;51.130;13.978;2023-11-19T07:32:10;4.53;;;2.87;;
19030;SDS011;9648;51.130;13.978;2023-11-19T07:35:13;4.63;;;2.60;;
19030;SDS011;9648;51.130;13.978;2023-11-19T07:38:15;4.13;;;2.80;;
19030;SDS011;9648;51.130;13.978;2023-11-19T07:41:17;4.80;;;2.80;;
19030;SDS011;9648;51.130;13.978;2023-11-19T07:44:20;4.17;;;2.97;;
19030;SDS011;9648;51.130;13.978;2023-11-19T07:47:23;4.57;;;2.97;;
19030;SDS011;9648;51.130;13.978;2023-11-19T07:50:25;4.57;;;2.87;;
19030;SDS011;9648;51.130;13.978;2023-11-19T07:53:27;3.47;;;2.60;;
19030;SDS011;9648;51.130;13.978;2023-11-19T07:56:29;4.50;;;2.90;;
19030;SDS011;9648;51.130;13.978;2023-11-19T07:59:31;6.17;;;2.80;;
19030;SDS011;9648;51.130;13.978;2023-11-19T08:02:33;4.90;;;3.33;;
19030;SDS011;9648;51.130;13.978;2023-11-19T08:05:35;5.03;;;3.23;;
19030;SDS011;9648;51.130;13.978;2023-11-19T08:08:37;4.30;;;3.10;;
19030;SDS011;9648;51.130;13.978;2023-11-19T08:11:39;4.40;;;3.13;;
19030;SDS011;9648;51.130;13.978;2023-11-19T08:14:41;5.77;;;3.10;;
19030;SDS011;9648;51.130;13.978;2023-11-19T08:17:45;3.83;;;2.90;;
19030;SDS011;9648;51.130;13.978;2023-11-19T08:20:47;4.90;;;2.90;;
19030;SDS011;9648;51.130;13.978;2023-11-19T08:23:52;2.90;;;2.27;;
19030;SDS011;9648;51.130;13.978;2023-11-19T08:26:54;3.67;;;2.63;;
19030;SDS011;9648;51.130;13.978;2023-11-19T08:29:55;3.43;;;2.40;;
19030;SDS011;9648;51.130;13.978;2023-11-19T08:32:58;5.40;;;4.17;;
19030;SDS011;9648;51.130;13.978;2023-11-19T08:36:03;6.47;;;4.33;;
19030;SDS011;9648;51.130;13.978;2023-11-19T08:39:05;5.93;;;4.13;;
19030;SDS011;9648;51.130;13.978;2023-11-19T08:42:08;5.83;;;4.30;;
19030;SDS011;9648;51.130;13.978;2023-11-19T08:45:10;5.37;;;3.60;;
19030;SDS011;9648;51.130;13.978;2023-11-19T08:48:13;5.10;;;3.63;;
19030;SDS011;9648;51.130;13.978;2023-11-19T08:51:15;3.53;;;2.90;;
19030;SDS011;9648;51.130;13.978;2023-11-19T08:54:16;4.20;;;2.90;;
19030;SDS011;9648;51.130;13.978;2023-11-19T08:57:20;4.47;;;2.97;;
19030;SDS011;9648;51.130;13.978;2023-11-19T09:00:21;3.83;;;2.90;;
19030;SDS011;9648;51.130;13.978;2023-11-19T09:03:24;3.37;;;2.60;;
19030;SDS011;9648;51.130;13.978;2023-11-19T09:06:27;3.30;;;2.23;;
19030;SDS011;9648;51.130;13.978;2023-11-19T09:09:29;4.10;;;2.47;;
19030;SDS011;9648;51.130;13.978;2023-11-19T09:12:34;2.43;;;2.13;;
19030;SDS011;9648;51.130;13.978;2023-11-19T09:15:36;4.17;;;2.37;;
19030;SDS011;9648;51.130;13.978;2023-11-19T09:18:39;3.73;;;2.60;;
19030;SDS011;9648;51.130;13.978;2023-11-19T09:21:40;4.57;;;2.97;;
19030;SDS011;9648;51.130;13.978;2023-11-19T09:24:42;5.43;;;2.90;;
19030;SDS011;9648;51.130;13.978;2023-11-19T09:27:44;3.50;;;2.77;;
19030;SDS011;9648;51.130;13.978;2023-11-19T09:30:46;4.40;;;2.50;;
19030;SDS011;9648;51.130;13.978;2023-11-19T09:33:49;3.50;;;2.63;;
19030;SDS011;9648;51.130;13.978;2023-11-19T09:36:51;4.63;;;2.73;;
19030;SDS011;9648;51.130;13.978;2023-11-19T09:39:53;4.43;;;2.53;;
19030;SDS011;9648;51.130;13.978;2023-11-19T09:42:55;4.10;;;2.27;;
19030;SDS011;9648;51.130;13.978;2023-11-19T09:45:56;10.30;;;4.20;;
19030;SDS011;9648;51.130;13.978;2023-11-19T09:49:02;5.40;;;2.83;;
19030;SDS011;9648;51.130;13.978;2023-11-19T09:52:05;2.77;;;1.43;;
19030;SDS011;9648;51.130;13.978;2023-11-19T09:55:06;3.83;;;1.37;;
19030;SDS011;9648;51.130;13.978;2023-11-19T09:58:08;1.93;;;1.40;;
19030;SDS011;9648;51.130;13.978;2023-11-19T10:01:11;2.57;;;1.37;;
19030;SDS011;9648;51.130;13.978;2023-11-19T10:04:15;2.23;;;1.07;;
19030;SDS011;9648;51.130;13.978;2023-11-19T10:07:17;2.63;;;1.40;;
19030;SDS011;9648;51.130;13.978;2023-11-19T10:10:18;3.63;;;1.50;;
19030;SDS011;9648;51.130;13.978;2023-11-19T10:13:25;2.97;;;1.50;;
19030;SDS011;9648;51.130;13.978;2023-11-19T10:16:30;3.50;;;1.60;;
19030;SDS011;9648;51.130;13.978;2023-11-19T10:19:34;4.87;;;1.60;;
19030;SDS011;9648;51.130;13.978;2023-11-19T10:22:36;6.47;;;1.70;;
19030;SDS011;9648;51.130;13.978;2023-11-19T10:25:38;3.10;;;1.40;;
19030;SDS011;9648;51.130;13.978;2023-11-19T10:28:39;1.43;;;1.00;;
19030;SDS011;9648;51.130;13.978;2023-11-19T10:31:43;2.77;;;1.30;;
19030;SDS011;9648;51.130;13.978;2023-11-19T10:35:05;5.80;;;1.63;;
19030;SDS011;9648;51.130;13.978;2023-11-19T10:38:13;3.97;;;1.90;;
19030;SDS011;9648;51.130;13.978;2023-11-19T10:41:26;4.67;;;1.20;;
19030;SDS011;9648;51.130;13.978;2023-11-19T10:44:31;3.07;;;1.60;;
19030;SDS011;9648;51.130;13.978;2023-11-19T10:47:36;4.37;;;1.83;;
19030;SDS011;9648;51.130;13.978;2023-11-19T10:50:40;2.00;;;1.33;;
19030;SDS011;9648;51.130;13.978;2023-11-19T10:53:43;1.97;;;1.30;;
19030;SDS011;9648;51.130;13.978;2023-11-19T10:56:45;2.50;;;1.27;;
19030;SDS011;9648;51.130;13.978;2023-11-19T10:59:51;4.23;;;1.20;;
19030;SDS011;9648;51.130;13.978;2023-11-19T11:02:54;5.20;;;1.30;;
19030;SDS011;9648;51.130;13.978;2023-11-19T11:05:57;3.00;;;1.20;;
19030;SDS011;9648;51.130;13.978;2023-11-19T11:08:59;2.43;;;1.10;;
19030;SDS011;9648;51.130;13.978;2023-11-19T11:12:02;3.00;;;1.20;;
19030;SDS011;9648;51.130;13.978;2023-11-19T11:15:05;3.87;;;1.40;;
19030;SDS011;9648;51.130;13.978;2023-11-19T11:18:08;1.50;;;0.90;;
19030;SDS011;9648;51.130;13.978;2023-11-19T11:21:12;4.93;;;1.40;;
19030;SDS011;9648;51.130;13.978;2023-11-19T11:24:32;3.97;;;1.20;;
19030;SDS011;9648;51.130;13.978;2023-11-19T11:27:56;1.63;;;0.90;;
19030;SDS011;9648;51.130;13.978;2023-11-19T11:31:08;3.63;;;1.03;;
19030;SDS011;9648;51.130;13.978;2023-11-19T11:34:25;1.30;;;0.90;;
19030;SDS011;9648;51.130;13.978;2023-11-19T11:37:45;1.80;;;0.97;;
19030;SDS011;9648;51.130;13.978;2023-11-19T11:44:24;1.77;;;1.00;;
19030;SDS011;9648;51.130;13.978;2023-11-19T11:48:08;1.87;;;1.00;;
19030;SDS011;9648;51.130;13.978;2023-11-19T11:51:12;1.37;;;0.80;;
19030;SDS011;9648;51.130;13.978;2023-11-19T11:54:27;2.20;;;1.20;;
19030;SDS011;9648;51.130;13.978;2023-11-19T11:57:35;3.60;;;1.00;;
19030;SDS011;9648;51.130;13.978;2023-11-19T12:00:38;1.53;;;0.87;;
19030;SDS011;9648;51.130;13.978;2023-11-19T12:03:40;2.40;;;1.10;;
19030;SDS011;9648;51.130;13.978;2023-11-19T12:06:42;2.17;;;0.90;;
19030;SDS011;9648;51.130;13.978;2023-11-19T12:09:48;2.90;;;1.10;;
19030;SDS011;9648;51.130;13.978;2023-11-19T12:12:52;4.03;;;1.20;;
19030;SDS011;9648;51.130;13.978;2023-11-19T12:16:06;4.00;;;1.00;;
19030;SDS011;9648;51.130;13.978;2023-11-19T12:19:08;3.47;;;0.87;;
19030;SDS011;9648;51.130;13.978;2023-11-19T12:22:10;2.27;;;1.07;;
19030;SDS011;9648;51.130;13.978;2023-11-19T12:25:13;2.20;;;1.00;;
19030;SDS011;9648;51.130;13.978;2023-11-19T12:28:16;3.53;;;1.10;;
19030;SDS011;9648;51.130;13.978;2023-11-19T12:31:19;4.07;;;1.00;;
19030;SDS011;9648;51.130;13.978;2023-11-19T12:34:20;4.43;;;1.07;;
19030;SDS011;9648;51.130;13.978;2023-11-19T12:37:23;5.13;;;1.70;;
19030;SDS011;9648;51.130;13.978;2023-11-19T12:40:26;4.93;;;2.40;;
19030;SDS011;9648;51.130;13.978;2023-11-19T12:43:29;6.53;;;2.30;;
19030;SDS011;9648;51.130;13.978;2023-11-19T12:46:31;8.33;;;2.00;;
19030;SDS011;9648;51.130;13.978;2023-11-19T12:49:32;4.40;;;1.10;;
19030;SDS011;9648;51.130;13.978;2023-11-19T12:52:34;3.73;;;1.20;;
19030;SDS011;9648;51.130;13.978;2023-11-19T12:55:37;4.63;;;1.50;;
19030;SDS011;9648;51.130;13.978;2023-11-19T12:58:39;4.00;;;1.27;;
19030;SDS011;9648;51.130;13.978;2023-11-19T13:01:47;4.13;;;1.20;;
19030;SDS011;9648;51.130;13.978;2023-11-19T13:04:55;6.83;;;1.57;;
19030;SDS011;9648;51.130;13.978;2023-11-19T13:08:00;4.03;;;1.97;;
19030;SDS011;9648;51.130;13.978;2023-11-19T13:11:04;8.10;;;1.60;;
19030;SDS011;9648;51.130;13.978;2023-11-19T13:14:07;7.77;;;2.20;;
19030;SDS011;9648;51.130;13.978;2023-11-19T13:17:12;5.03;;;1.97;;
19030;SDS011;9648;51.130;13.978;2023-11-19T13:20:14;7.03;;;2.33;;
19030;SDS011;9648;51.130;13.978;2023-11-19T13:23:16;7.43;;;2.73;;
19030;SDS011;9648;51.130;13.978;2023-11-19T13:26:19;4.27;;;2.17;;
19030;SDS011;9648;51.130;13.978;2023-11-19T13:29:21;5.97;;;2.00;;
19030;SDS011;9648;51.130;13.978;2023-11-19T13:32:22;7.03;;;2.50;;
19030;SDS011;9648;51.130;13.978;2023-11-19T13:35:24;5.53;;;2.57;;
19030;SDS011;9648;51.130;13.978;2023-11-19T13:38:27;7.97;;;3.13;;
19030;SDS011;9648;51.130;13.978;2023-11-19T13:41:32;6.20;;;2.67;;
19030;SDS011;9648;51.130;13.978;2023-11-19T13:44:34;6.23;;;2.40;;
19030;SDS011;9648;51.130;13.978;2023-11-19T13:47:35;6.50;;;2.47;;
19030;SDS011;9648;51.130;13.978;2023-11-19T13:50:37;9.63;;;2.50;;
19030;SDS011;9648;51.130;13.978;2023-11-19T13:53:39;11.50;;;2.80;;
19030;SDS011;9648;51.130;13.978;2023-11-19T13:56:43;7.03;;;2.60;;
19030;SDS011;9648;51.130;13.978;2023-11-19T13:59:46;8.80;;;2.40;;
19030;SDS011;9648;51.130;13.978;2023-11-19T14:02:48;9.93;;;2.70;;
19030;SDS011;9648;51.130;13.978;2023-11-19T14:05:49;12.03;;;2.77;;
19030;SDS011;9648;51.130;13.978;2023-11-19T14:08:52;9.77;;;2.07;;
19030;SDS011;9648;51.130;13.978;2023-11-19T14:11:55;8.97;;;2.37;;
19030;SDS011;9648;51.130;13.978;2023-11-19T14:14:57;8.37;;;2.27;;
19030;SDS011;9648;51.130;13.978;2023-11-19T14:18:00;8.93;;;2.40;;
19030;SDS011;9648;51.130;13.978;2023-11-19T14:21:01;10.73;;;2.03;;
19030;SDS011;9648;51.130;13.978;2023-11-19T14:24:04;10.17;;;2.53;;
19030;SDS011;9648;51.130;13.978;2023-11-19T14:27:08;7.33;;;1.83;;
19030;SDS011;9648;51.130;13.978;2023-11-19T14:30:10;7.70;;;2.10;;
19030;SDS011;9648;51.130;13.978;2023-11-19T14:33:13;8.10;;;2.00;;
19030;SDS011;9648;51.130;13.978;2023-11-19T14:36:14;14.17;;;2.53;;
19030;SDS011;9648;51.130;13.978;2023-11-19T14:39:16;13.97;;;2.73;;
19030;SDS011;9648;51.130;13.978;2023-11-19T14:42:19;11.13;;;1.97;;
19030;SDS011;9648;51.130;13.978;2023-11-19T14:45:20;10.87;;;2.23;;
19030;SDS011;9648;51.130;13.978;2023-11-19T14:48:22;7.80;;;2.37;;
19030;SDS011;9648;51.130;13.978;2023-11-19T14:51:24;12.43;;;4.37;;
19030;SDS011;9648;51.130;13.978;2023-11-19T14:54:26;8.47;;;3.17;;
19030;SDS011;9648;51.130;13.978;2023-11-19T14:57:31;8.70;;;1.80;;
19030;SDS011;9648;51.130;13.978;2023-11-19T15:00:32;15.20;;;2.47;;
19030;SDS011;9648;51.130;13.978;2023-11-19T15:03:34;11.23;;;2.00;;
19030;SDS011;9648;51.130;13.978;2023-11-19T15:06:35;8.53;;;2.40;;
19030;SDS011;9648;51.130;13.978;2023-11-19T15:09:37;9.97;;;2.37;;
19030;SDS011;9648;51.130;13.978;2023-11-19T15:12:40;12.13;;;2.50;;
19030;SDS011;9648;51.130;13.978;2023-11-19T15:15:42;7.57;;;2.43;;
19030;SDS011;9648;51.130;13.978;2023-11-19T15:18:43;11.63;;;3.77;;
19030;SDS011;9648;51.130;13.978;2023-11-19T15:21:45;14.27;;;4.30;;
19030;SDS011;9648;51.130;13.978;2023-11-19T15:24:46;12.10;;;3.83;;
19030;SDS011;9648;51.130;13.978;2023-11-19T15:27:49;13.70;;;3.90;;
19030;SDS011;9648;51.130;13.978;2023-11-19T15:30:51;13.13;;;3.60;;
19030;SDS011;9648;51.130;13.978;2023-11-19T15:33:53;6.70;;;3.07;;
19030;SDS011;9648;51.130;13.978;2023-11-19T15:36:54;8.30;;;2.13;;
19030;SDS011;9648;51.130;13.978;2023-11-19T15:39:56;11.33;;;3.07;;
19030;SDS011;9648;51.130;13.978;2023-11-19T15:43:00;10.37;;;2.30;;
19030;SDS011;9648;51.130;13.978;2023-11-19T15:46:05;11.53;;;2.70;;
19030;SDS011;9648;51.130;13.978;2023-11-19T15:49:07;10.93;;;3.17;;
19030;SDS011;9648;51.130;13.978;2023-11-19T15:52:09;10.73;;;3.00;;
19030;SDS011;9648;51.130;13.978;2023-11-19T15:55:10;12.73;;;3.20;;
19030;SDS011;9648;51.130;13.978;2023-11-19T15:58:13;12.50;;;3.63;;
19030;SDS011;9648;51.130;13.978;2023-11-19T16:01:15;11.00;;;3.53;;
19030;SDS011;9648;51.130;13.978;2023-11-19T16:04:17;13.77;;;3.50;;
19030;SDS011;9648;51.130;13.978;2023-11-19T16:07:23;8.73;;;3.03;;
19030;SDS011;9648;51.130;13.978;2023-11-19T16:10:25;12.27;;;2.57;;
19030;SDS011;9648;51.130;13.978;2023-11-19T16:13:28;7.90;;;2.33;;
19030;SDS011;9648;51.130;13.978;2023-11-19T16:16:30;6.30;;;2.70;;
19030;SDS011;9648;51.130;13.978;2023-11-19T16:19:32;6.97;;;2.07;;
19030;SDS011;9648;51.130;13.978;2023-11-19T16:22:34;9.67;;;2.30;;
19030;SDS011;9648;51.130;13.978;2023-11-19T16:25:36;9.57;;;2.30;;
19030;SDS011;9648;51.130;13.978;2023-11-19T16:28:40;11.20;;;2.57;;
19030;SDS011;9648;51.130;13.978;2023-11-19T16:31:44;11.47;;;2.40;;
19030;SDS011;9648;51.130;13.978;2023-11-19T16:34:46;5.47;;;1.60;;
19030;SDS011;9648;51.130;13.978;2023-11-19T16:37:48;11.73;;;2.47;;
19030;SDS011;9648;51.130;13.978;2023-11-19T16:40:49;6.97;;;2.00;;
19030;SDS011;9648;51.130;13.978;2023-11-19T16:43:53;8.40;;;2.20;;
19030;SDS011;9648;51.130;13.978;2023-11-19T16:46:57;12.10;;;2.33;;
19030;SDS011;9648;51.130;13.978;2023-11-19T16:49:58;8.83;;;1.83;;
19030;SDS011;9648;51.130;13.978;2023-11-19T16:53:00;8.97;;;2.10;;
19030;SDS011;9648;51.130;13.978;2023-11-19T16:56:04;9.30;;;2.10;;
19030;SDS011;9648;51.130;13.978;2023-11-19T16:59:07;8.77;;;2.73;;
19030;SDS011;9648;51.130;13.978;2023-11-19T17:02:09;5.07;;;1.93;;
19030;SDS011;9648;51.130;13.978;2023-11-19T17:05:11;11.53;;;2.17;;
19030;SDS011;9648;51.130;13.978;2023-11-19T17:08:13;13.90;;;2.40;;
19030;SDS011;9648;51.130;13.978;2023-11-19T17:11:14;10.03;;;1.87;;
19030;SDS011;9648;51.130;13.978;2023-11-19T17:14:17;12.13;;;1.90;;
19030;SDS011;9648;51.130;13.978;2023-11-19T17:17:20;9.33;;;1.77;;
19030;SDS011;9648;51.130;13.978;2023-11-19T17:20:21;5.23;;;1.90;;
19030;SDS011;9648;51.130;13.978;2023-11-19T17:23:23;9.07;;;1.87;;
19030;SDS011;9648;51.130;13.978;2023-11-19T17:26:24;6.13;;;1.73;;
19030;SDS011;9648;51.130;13.978;2023-11-19T17:29:27;10.27;;;2.87;;
19030;SDS011;9648;51.130;13.978;2023-11-19T17:32:29;5.90;;;1.93;;
19030;SDS011;9648;51.130;13.978;2023-11-19T17:35:32;7.83;;;1.70;;
19030;SDS011;9648;51.130;13.978;2023-11-19T17:38:34;5.00;;;2.20;;
19030;SDS011;9648;51.130;13.978;2023-11-19T17:41:35;5.60;;;1.60;;
19030;SDS011;9648;51.130;13.978;2023-11-19T17:44:39;9.63;;;2.00;;
19030;SDS011;9648;51.130;13.978;2023-11-19T17:47:41;7.83;;;2.23;;
19030;SDS011;9648;51.130;13.978;2023-11-19T17:50:43;3.70;;;1.53;;
19030;SDS011;9648;51.130;13.978;2023-11-19T17:53:44;5.43;;;2.00;;
19030;SDS011;9648;51.130;13.978;2023-11-19T17:56:46;10.07;;;2.40;;
19030;SDS011;9648;51.130;13.978;2023-11-19T17:59:49;8.33;;;2.00;;
19030;SDS011;9648;51.130;13.978;2023-11-19T18:02:51;6.30;;;1.70;;
19030;SDS011;9648;51.130;13.978;2023-11-19T18:05:52;6.13;;;1.70;;
19030;SDS011;9648;51.130;13.978;2023-11-19T18:08:54;9.10;;;3.03;;
19030;SDS011;9648;51.130;13.978;2023-11-19T18:11:56;6.97;;;2.30;;
19030;SDS011;9648;51.130;13.978;2023-11-19T18:15:00;7.97;;;1.60;;
19030;SDS011;9648;51.130;13.978;2023-11-19T18:18:01;11.00;;;2.13;;
19030;SDS011;9648;51.130;13.978;2023-11-19T18:21:03;6.57;;;2.20;;
19030;SDS011;9648;51.130;13.978;2023-11-19T18:24:06;9.80;;;3.30;;